Dona Emma, Brazil
Current Conditions -  °F | °C
As of 2:00 PM on Saturday 25 Oct 2014 (Local Time) from SBNF Reporting Station
Scattered Clouds Scattered Clouds  
Wind Chill: 77°   Ceiling: Unl
Heat Index: 79°   Visibility: 6mi
Dew Point: 66°   Wind: 17mph
Humidity: 69%   Direction: 60°ENE
Pressure: 29.91"   Gusts: NA
Location:  26.98°S, 49.73°W
Report Text: SBNF 251600Z 06015KT 9999 FEW030 SCT040 25/19 Q1013
Loading
Personal Weather Stations






























Interactive Weather Map
Tropical Storm Tracking
New forecast layout! Learn more

10-Day Weather Forecast

Advertisements
Track Severe Weather on mobile